createdAt,value
2023-05-06T00:02:20.316Z,4.28
2023-05-06T00:04:47.658Z,4.93
2023-05-06T00:07:14.422Z,6.00
2023-05-06T00:09:41.069Z,6.40
2023-05-06T00:12:07.844Z,6.30
2023-05-06T00:14:34.588Z,7.72
2023-05-06T00:17:01.223Z,5.15
2023-05-06T00:19:27.924Z,8.27
2023-05-06T00:21:55.957Z,5.68
2023-05-06T00:24:22.965Z,9.70
2023-05-06T00:26:49.637Z,4.88
2023-05-06T00:29:16.734Z,7.30
2023-05-06T00:31:43.455Z,6.43
2023-05-06T00:34:10.132Z,4.05
2023-05-06T00:36:37.625Z,5.80
2023-05-06T00:39:04.369Z,5.57
2023-05-06T00:41:32.718Z,4.97
2023-05-06T00:43:59.492Z,5.57
2023-05-06T00:46:26.360Z,4.45
2023-05-06T00:48:53.626Z,10.05
2023-05-06T00:51:20.679Z,4.85
2023-05-06T00:53:47.696Z,4.45
2023-05-06T00:56:14.480Z,5.13
2023-05-06T00:58:41.349Z,5.75
2023-05-06T01:01:08.375Z,5.38
2023-05-06T01:03:35.142Z,5.10
2023-05-06T01:06:08.011Z,6.57
2023-05-06T01:08:42.182Z,5.30
2023-05-06T01:11:22.750Z,4.43
2023-05-06T01:13:59.263Z,4.25
2023-05-06T01:16:29.595Z,7.38
2023-05-06T01:18:59.476Z,5.43
2023-05-06T01:21:34.588Z,7.25
2023-05-06T01:24:01.747Z,6.55
2023-05-06T01:26:28.437Z,6.43
2023-05-06T01:28:56.534Z,5.18
2023-05-06T01:31:26.996Z,4.88
2023-05-06T01:34:05.776Z,6.93
2023-05-06T01:36:45.977Z,4.57
2023-05-06T01:39:18.117Z,7.15
2023-05-06T01:41:48.808Z,6.38
2023-05-06T01:44:17.296Z,5.25
2023-05-06T01:46:45.801Z,6.43
2023-05-06T01:49:16.940Z,3.97
2023-05-06T01:51:51.606Z,6.90
2023-05-06T01:54:18.667Z,5.53
2023-05-06T01:56:45.508Z,5.40
2023-05-06T01:59:12.526Z,6.00
2023-05-06T02:01:39.359Z,4.28
2023-05-06T02:04:07.422Z,5.13
2023-05-06T02:06:34.463Z,4.28
2023-05-06T02:09:01.343Z,7.07
2023-05-06T02:11:29.737Z,4.18
2023-05-06T02:14:02.375Z,8.93
2023-05-06T02:16:31.949Z,6.70
2023-05-06T02:18:58.668Z,5.18
2023-05-06T02:21:25.326Z,4.45
2023-05-06T02:23:52.060Z,6.82
2023-05-06T02:26:18.704Z,6.53
2023-05-06T02:28:45.356Z,4.97
2023-05-06T02:31:16.237Z,6.13
2023-05-06T02:33:44.831Z,5.88
2023-05-06T02:36:11.522Z,5.45
2023-05-06T02:38:38.175Z,6.93
2023-05-06T02:41:04.815Z,5.90
2023-05-06T02:43:31.584Z,6.22
2023-05-06T02:45:58.445Z,5.35
2023-05-06T02:48:25.794Z,5.07
2023-05-06T02:50:52.457Z,5.13
2023-05-06T02:53:19.474Z,5.30
2023-05-06T02:55:46.552Z,10.00
2023-05-06T02:58:13.832Z,5.70
2023-05-06T03:00:40.534Z,5.50
2023-05-06T03:03:07.411Z,5.40
2023-05-06T03:05:34.180Z,6.53
2023-05-06T03:08:01.022Z,11.05
2023-05-06T03:10:27.838Z,6.53
2023-05-06T03:12:56.491Z,5.28
2023-05-06T03:15:23.211Z,4.50
2023-05-06T03:17:50.185Z,7.05
2023-05-06T03:20:17.234Z,5.57
2023-05-06T03:22:50.205Z,4.72
2023-05-06T03:25:17.798Z,6.50
2023-05-06T03:27:44.431Z,8.85
2023-05-06T03:30:17.367Z,6.82
2023-05-06T03:32:44.918Z,4.53
2023-05-06T03:35:15.725Z,5.68
2023-05-06T03:37:45.735Z,5.25
2023-05-06T03:40:12.930Z,5.68
2023-05-06T03:42:39.641Z,8.30
2023-05-06T03:45:07.907Z,5.15
2023-05-06T03:47:36.018Z,7.50
2023-05-06T03:50:06.203Z,5.53
2023-05-06T03:52:34.850Z,6.43
2023-05-06T03:55:01.732Z,5.15
2023-05-06T03:57:29.745Z,4.72
2023-05-06T03:59:57.024Z,7.70
2023-05-06T04:02:25.412Z,5.22
2023-05-06T04:04:52.188Z,8.95
2023-05-06T04:07:18.990Z,5.78
2023-05-06T04:09:45.658Z,5.80
2023-05-06T04:12:12.331Z,6.50
2023-05-06T04:14:39.811Z,6.35
2023-05-06T04:17:07.611Z,6.45
2023-05-06T04:19:34.181Z,6.00
2023-05-06T04:22:00.888Z,5.85
2023-05-06T04:24:28.538Z,6.00
2023-05-06T04:26:56.142Z,5.97
2023-05-06T04:29:23.475Z,6.15
2023-05-06T04:32:00.035Z,7.30
2023-05-06T04:34:29.447Z,6.07
2023-05-06T04:36:59.441Z,5.70
2023-05-06T04:39:32.787Z,5.18
2023-05-06T04:41:59.477Z,9.82
2023-05-06T04:44:34.110Z,9.43
2023-05-06T04:47:02.452Z,9.80
2023-05-06T04:49:29.652Z,5.93
2023-05-06T04:51:57.099Z,5.22
2023-05-06T04:54:24.703Z,4.63
2023-05-06T04:56:51.577Z,5.40
2023-05-06T04:59:19.428Z,7.38
2023-05-06T05:01:46.200Z,5.93
2023-05-06T05:04:12.901Z,5.63
2023-05-06T05:06:40.148Z,5.60
2023-05-06T05:09:06.726Z,6.88
2023-05-06T05:11:38.093Z,4.97
2023-05-06T05:14:05.075Z,9.25
2023-05-06T05:16:32.052Z,12.93
2023-05-06T05:19:01.583Z,7.53
2023-05-06T05:21:31.786Z,7.88
2023-05-06T05:23:59.144Z,7.47
2023-05-06T05:26:26.732Z,6.32
2023-05-06T05:28:55.010Z,10.65
2023-05-06T05:31:22.818Z,7.35
2023-05-06T05:33:50.789Z,9.32
2023-05-06T05:36:21.095Z,9.45
2023-05-06T05:38:50.630Z,7.70
2023-05-06T05:41:18.741Z,9.43
2023-05-06T05:43:45.907Z,9.10
2023-05-06T05:46:14.286Z,8.25
2023-05-06T05:48:43.288Z,6.95
2023-05-06T05:51:11.162Z,13.60
2023-05-06T05:53:37.925Z,8.43
2023-05-06T05:56:06.196Z,8.57
2023-05-06T05:58:33.317Z,8.23
2023-05-06T06:01:01.094Z,8.30
2023-05-06T06:03:28.347Z,9.77
2023-05-06T06:05:55.464Z,8.10
2023-05-06T06:08:24.913Z,8.60
2023-05-06T06:10:52.562Z,13.07
2023-05-06T06:13:23.913Z,8.45
2023-05-06T06:15:52.176Z,7.15
2023-05-06T06:18:20.369Z,8.52
2023-05-06T06:20:47.380Z,8.13
2023-05-06T06:23:14.246Z,8.55
2023-05-06T06:25:41.093Z,8.13
2023-05-06T06:28:07.817Z,8.10
2023-05-06T06:30:34.518Z,8.23
2023-05-06T06:33:01.556Z,9.50
2023-05-06T06:35:28.988Z,8.38
2023-05-06T06:37:55.686Z,9.55
2023-05-06T06:40:22.366Z,9.10
2023-05-06T06:42:49.150Z,11.35
2023-05-06T06:45:31.563Z,8.05
2023-05-06T06:47:58.282Z,8.32
2023-05-06T06:50:24.999Z,8.68
2023-05-06T06:52:51.770Z,7.30
2023-05-06T06:55:18.399Z,8.60
2023-05-06T06:57:45.064Z,9.38
2023-05-06T07:00:12.305Z,8.38
2023-05-06T07:02:38.966Z,8.45
2023-05-06T07:05:05.960Z,9.32
2023-05-06T07:07:32.710Z,6.90
2023-05-06T07:09:59.777Z,7.60
2023-05-06T07:12:26.857Z,9.43
2023-05-06T07:14:53.471Z,13.65
2023-05-06T07:17:20.305Z,8.55
2023-05-06T07:19:46.947Z,6.95
2023-05-06T07:22:13.630Z,7.47
2023-05-06T07:24:40.288Z,7.35
2023-05-06T07:27:07.176Z,7.00
2023-05-06T07:29:36.568Z,7.47
2023-05-06T07:32:03.730Z,5.88
2023-05-06T07:34:30.690Z,6.60
2023-05-06T07:36:57.436Z,6.88
2023-05-06T07:39:24.063Z,6.25
2023-05-06T07:41:51.520Z,6.63
2023-05-06T07:44:18.215Z,6.32
2023-05-06T07:46:45.088Z,6.40
2023-05-06T07:49:11.747Z,6.97
2023-05-06T07:51:38.449Z,6.30
2023-05-06T07:54:05.131Z,8.07
2023-05-06T07:56:31.778Z,5.63
2023-05-06T07:58:59.957Z,6.80
2023-05-06T08:01:29.065Z,6.28
2023-05-06T08:03:55.921Z,7.75
2023-05-06T08:06:22.889Z,6.40
2023-05-06T08:08:49.582Z,6.43
2023-05-06T08:11:18.122Z,7.60
2023-05-06T08:13:47.051Z,6.18
2023-05-06T08:16:13.936Z,5.65
2023-05-06T08:18:40.713Z,6.70
2023-05-06T08:21:07.320Z,6.63
2023-05-06T08:23:33.952Z,5.88
2023-05-06T08:26:01.885Z,9.15
2023-05-06T08:28:29.322Z,6.55
2023-05-06T08:30:56.026Z,6.78
2023-05-06T08:33:22.702Z,5.63
2023-05-06T08:35:51.124Z,14.40
2023-05-06T08:38:17.988Z,6.78
2023-05-06T08:40:44.968Z,5.28
2023-05-06T08:43:14.985Z,6.63
2023-05-06T08:45:42.375Z,7.97
2023-05-06T08:48:09.674Z,6.53
2023-05-06T08:50:42.339Z,6.63
2023-05-06T08:53:13.485Z,6.20
2023-05-06T08:55:44.188Z,6.28
2023-05-06T08:58:16.837Z,6.72
2023-05-06T09:00:44.324Z,9.00
2023-05-06T09:03:11.129Z,9.60
2023-05-06T09:05:37.914Z,12.45
2023-05-06T09:08:04.903Z,8.32
2023-05-06T09:10:46.192Z,7.65
2023-05-06T09:13:15.550Z,8.88
2023-05-06T09:15:49.917Z,7.30
2023-05-06T09:18:16.993Z,7.47
2023-05-06T09:20:48.413Z,8.05
2023-05-06T09:23:17.295Z,8.13
2023-05-06T09:25:46.125Z,8.52
2023-05-06T09:28:14.186Z,10.88
2023-05-06T09:30:42.953Z,7.93
2023-05-06T09:33:10.524Z,7.30
2023-05-06T09:35:39.201Z,8.68
2023-05-06T09:38:07.511Z,10.57
2023-05-06T09:40:38.353Z,8.32
2023-05-06T09:43:06.709Z,7.85
2023-05-06T09:45:33.873Z,7.93
2023-05-06T09:48:01.049Z,6.97
2023-05-06T09:50:28.210Z,8.70
2023-05-06T09:52:56.471Z,13.90
2023-05-06T09:55:26.723Z,7.85
2023-05-06T09:57:54.692Z,8.05
2023-05-06T10:00:26.917Z,9.50
2023-05-06T10:02:54.997Z,7.80
2023-05-06T10:05:22.970Z,7.75
2023-05-06T10:07:52.320Z,7.25
2023-05-06T10:10:19.333Z,6.75
2023-05-06T10:12:46.383Z,8.65
2023-05-06T10:15:13.325Z,7.55
2023-05-06T10:17:45.198Z,6.63
2023-05-06T10:20:14.054Z,7.72
2023-05-06T10:22:46.542Z,6.28
2023-05-06T10:25:25.165Z,7.10
2023-05-06T10:27:52.595Z,5.65
2023-05-06T10:30:19.751Z,6.80
2023-05-06T10:32:46.717Z,12.73
2023-05-06T10:35:27.489Z,7.38
2023-05-06T10:37:55.161Z,5.60
2023-05-06T10:40:23.162Z,5.97
2023-05-06T10:42:51.479Z,9.27
2023-05-06T10:45:18.092Z,5.40
2023-05-06T10:47:57.326Z,4.93
2023-05-06T10:50:25.860Z,6.07
2023-05-06T10:52:58.891Z,5.20
2023-05-06T10:55:25.878Z,10.93
2023-05-06T10:57:57.363Z,6.30
2023-05-06T11:00:24.466Z,4.63
2023-05-06T11:02:56.672Z,4.75
2023-05-06T11:05:24.127Z,4.03
2023-05-06T11:07:52.112Z,5.07
2023-05-06T11:10:39.099Z,5.88
2023-05-06T11:13:24.471Z,6.97
2023-05-06T11:15:52.118Z,6.22
2023-05-06T11:18:24.615Z,5.30
2023-05-06T11:21:02.440Z,5.25
2023-05-06T11:23:52.169Z,4.18
2023-05-06T11:26:19.011Z,5.25
2023-05-06T11:28:47.226Z,7.57
2023-05-06T11:31:15.022Z,4.78
2023-05-06T11:33:55.049Z,5.22
2023-05-06T11:36:21.832Z,3.35
2023-05-06T11:38:51.341Z,3.20
2023-05-06T11:41:18.914Z,3.67
2023-05-06T11:43:50.415Z,3.78
2023-05-06T11:46:22.761Z,3.63
2023-05-06T11:48:50.443Z,3.63
2023-05-06T11:51:22.772Z,4.28
2023-05-06T11:53:49.626Z,3.17
2023-05-06T11:56:16.247Z,5.07
2023-05-06T11:58:44.109Z,3.67
2023-05-06T12:01:10.715Z,3.88
2023-05-06T12:03:37.662Z,3.20
2023-05-06T12:06:04.845Z,4.07
2023-05-06T12:08:36.371Z,5.25
2023-05-06T12:11:08.924Z,4.72
2023-05-06T12:13:36.966Z,4.22
2023-05-06T12:16:05.737Z,3.08
2023-05-06T12:18:33.096Z,4.40
2023-05-06T12:21:02.781Z,4.05
2023-05-06T12:23:29.489Z,4.90
2023-05-06T12:26:06.919Z,3.60
2023-05-06T12:28:36.468Z,3.88
2023-05-06T12:31:24.214Z,3.25
2023-05-06T12:33:51.063Z,4.20
2023-05-06T12:36:18.858Z,4.07
2023-05-06T12:38:59.003Z,3.97
2023-05-06T12:41:36.793Z,3.03
2023-05-06T12:44:04.488Z,3.72
2023-05-06T12:46:31.348Z,2.95
2023-05-06T12:49:02.672Z,3.05
2023-05-06T12:51:31.169Z,4.28
2023-05-06T12:53:58.057Z,4.97
2023-05-06T12:56:25.050Z,4.07
2023-05-06T12:59:02.388Z,3.33
2023-05-06T13:01:29.300Z,4.05
2023-05-06T13:03:58.726Z,2.72
2023-05-06T13:06:25.747Z,2.70
2023-05-06T13:08:52.464Z,2.70
2023-05-06T13:11:19.196Z,4.57
2023-05-06T13:13:45.947Z,3.63
2023-05-06T13:16:12.667Z,6.63
2023-05-06T13:18:39.316Z,4.63
2023-05-06T13:21:06.041Z,4.18
2023-05-06T13:23:34.935Z,5.55
2023-05-06T13:26:05.788Z,4.10
2023-05-06T13:28:33.962Z,3.65
2023-05-06T13:31:00.932Z,5.47
2023-05-06T13:33:27.741Z,5.20
2023-05-06T13:35:54.536Z,3.42
2023-05-06T13:38:21.843Z,2.95
2023-05-06T13:40:52.944Z,3.67
2023-05-06T13:43:21.234Z,5.47
2023-05-06T13:45:47.923Z,3.28
2023-05-06T13:48:14.960Z,3.75
2023-05-06T13:50:42.506Z,6.97
2023-05-06T13:53:09.238Z,2.95
2023-05-06T13:55:36.240Z,6.13
2023-05-06T13:58:04.046Z,3.30
2023-05-06T14:00:30.779Z,3.20
2023-05-06T14:02:57.801Z,3.10
2023-05-06T14:05:24.691Z,4.45
2023-05-06T14:07:52.014Z,7.55
2023-05-06T14:10:19.976Z,4.40
2023-05-06T14:12:47.445Z,5.47
2023-05-06T14:15:17.992Z,3.80
2023-05-06T14:17:44.778Z,4.03
2023-05-06T14:20:11.822Z,3.47
2023-05-06T14:22:41.031Z,6.60
2023-05-06T14:25:08.786Z,3.70
2023-05-06T14:27:36.154Z,5.15
2023-05-06T14:30:08.251Z,3.95
2023-05-06T14:32:36.113Z,2.50
2023-05-06T14:35:02.802Z,6.13
2023-05-06T14:37:29.803Z,3.65
2023-05-06T14:39:57.667Z,6.80
2023-05-06T14:42:24.467Z,4.60
2023-05-06T14:44:51.093Z,4.55
2023-05-06T14:47:18.135Z,3.40
2023-05-06T14:49:44.785Z,3.03
2023-05-06T14:52:11.501Z,4.57
2023-05-06T14:54:42.264Z,4.00
2023-05-06T14:57:09.803Z,3.70
2023-05-06T14:59:37.094Z,4.38
2023-05-06T15:02:07.393Z,5.35
2023-05-06T15:04:34.481Z,3.05
2023-05-06T15:07:01.347Z,4.35
2023-05-06T15:09:28.554Z,5.38
2023-05-06T15:11:55.157Z,6.07
2023-05-06T15:14:21.941Z,3.20
2023-05-06T15:16:48.681Z,4.18
2023-05-06T15:19:15.687Z,2.80
2023-05-06T15:21:42.353Z,5.78
2023-05-06T15:24:09.125Z,4.35
2023-05-06T15:26:35.823Z,4.57
2023-05-06T15:29:02.540Z,9.35
2023-05-06T15:31:31.442Z,4.75
2023-05-06T15:34:00.319Z,3.85
2023-05-06T15:36:27.694Z,2.97
2023-05-06T15:39:00.708Z,3.60
2023-05-06T15:41:31.315Z,8.32
2023-05-06T15:43:59.246Z,4.15
2023-05-06T15:46:26.883Z,4.53
2023-05-06T15:49:12.363Z,4.50
2023-05-06T15:51:41.121Z,3.13
2023-05-06T15:54:07.997Z,4.70
2023-05-06T15:56:40.532Z,3.55
2023-05-06T15:59:08.391Z,2.60
2023-05-06T16:02:04.631Z,4.22
2023-05-06T16:04:22.338Z,4.25
2023-05-06T16:06:49.586Z,2.60
2023-05-06T16:09:16.354Z,3.47
2023-05-06T16:11:43.233Z,4.28
2023-05-06T16:14:09.910Z,3.30
2023-05-06T16:16:36.653Z,4.72
2023-05-06T16:19:03.494Z,5.28
2023-05-06T16:21:30.265Z,5.50
2023-05-06T16:23:56.883Z,3.65
2023-05-06T16:26:24.548Z,4.88
2023-05-06T16:28:51.218Z,3.42
2023-05-06T16:31:18.236Z,5.82
2023-05-06T16:33:45.107Z,4.15
2023-05-06T16:36:12.508Z,3.65
2023-05-06T16:38:39.230Z,3.42
2023-05-06T16:41:06.006Z,4.70
2023-05-06T16:43:32.614Z,2.78
2023-05-06T16:45:59.190Z,5.22
2023-05-06T16:48:25.947Z,8.60
2023-05-06T16:50:52.666Z,2.97
2023-05-06T16:53:19.454Z,3.33
2023-05-06T16:55:48.663Z,5.75
2023-05-06T16:58:15.874Z,7.10
2023-05-06T17:00:42.871Z,5.50
2023-05-06T17:03:09.987Z,4.53
2023-05-06T17:05:37.093Z,4.43
2023-05-06T17:08:03.981Z,18.02
2023-05-06T17:10:31.029Z,7.85
2023-05-06T17:12:58.910Z,4.43
2023-05-06T17:15:25.894Z,8.05
2023-05-06T17:17:52.855Z,3.40
2023-05-06T17:20:22.888Z,5.22
2023-05-06T17:22:50.104Z,3.80
2023-05-06T17:25:16.891Z,3.85
2023-05-06T17:27:44.786Z,4.97
2023-05-06T17:30:12.431Z,3.70
2023-05-06T17:32:39.595Z,3.83
2023-05-06T17:35:07.379Z,8.43
2023-05-06T17:37:34.814Z,4.72
2023-05-06T17:40:01.997Z,3.92
2023-05-06T17:42:29.820Z,8.38
2023-05-06T17:44:56.521Z,12.32
2023-05-06T17:47:23.244Z,16.20
2023-05-06T17:49:53.832Z,15.18
2023-05-06T17:52:20.694Z,6.20
2023-05-06T17:55:15.019Z,4.78
2023-05-06T17:57:37.364Z,15.85
2023-05-06T18:00:04.474Z,3.70
2023-05-06T18:02:38.787Z,8.67
2023-05-06T18:05:06.582Z,7.07
2023-05-06T18:07:34.631Z,11.23
2023-05-06T18:10:01.525Z,16.20
2023-05-06T18:12:28.696Z,34.40
2023-05-06T18:14:56.813Z,29.38
2023-05-06T18:17:23.652Z,25.30
2023-05-06T18:19:50.566Z,16.67
2023-05-06T18:22:17.256Z,12.23
2023-05-06T18:24:44.216Z,11.73
2023-05-06T18:27:11.608Z,8.95
2023-05-06T18:29:38.403Z,16.92
2023-05-06T18:32:06.721Z,8.35
2023-05-06T18:34:34.191Z,6.05
2023-05-06T18:37:00.926Z,4.18
2023-05-06T18:39:27.605Z,5.10
2023-05-06T18:41:54.257Z,7.68
2023-05-06T18:44:20.973Z,9.00
2023-05-06T18:46:47.601Z,10.30
2023-05-06T18:49:14.398Z,8.45
2023-05-06T18:51:41.334Z,6.53
2023-05-06T18:54:08.269Z,5.18
2023-05-06T18:56:35.583Z,8.13
2023-05-06T18:59:02.363Z,4.18
2023-05-06T19:01:29.177Z,8.43
2023-05-06T19:03:56.851Z,8.80
2023-05-06T19:06:23.630Z,7.35
2023-05-06T19:08:50.312Z,7.57
2023-05-06T19:11:21.306Z,8.32
2023-05-06T19:13:48.053Z,8.68
2023-05-06T19:16:14.936Z,7.53
2023-05-06T19:18:41.786Z,6.32
2023-05-06T19:21:15.024Z,5.68
2023-05-06T19:23:41.777Z,4.72
2023-05-06T19:26:11.161Z,7.65
2023-05-06T19:28:39.371Z,4.63
2023-05-06T19:31:08.189Z,5.90
2023-05-06T19:33:36.702Z,4.22
2023-05-06T19:36:04.138Z,6.47
2023-05-06T19:38:30.830Z,6.80
2023-05-06T19:40:57.516Z,4.70
2023-05-06T19:43:24.514Z,8.35
2023-05-06T19:45:51.322Z,12.73
2023-05-06T19:48:19.238Z,9.63
2023-05-06T19:50:45.961Z,7.88
2023-05-06T19:53:12.661Z,7.63
2023-05-06T19:55:39.266Z,8.40
2023-05-06T19:58:06.002Z,7.10
2023-05-06T20:00:32.845Z,5.97
2023-05-06T20:03:00.777Z,6.97
2023-05-06T20:05:31.884Z,5.40
2023-05-06T20:07:59.986Z,6.40
2023-05-06T20:10:27.473Z,8.00
2023-05-06T20:12:57.326Z,6.97
2023-05-06T20:15:24.850Z,7.57
2023-05-06T20:17:52.004Z,6.03
2023-05-06T20:20:19.329Z,10.38
2023-05-06T20:22:46.088Z,7.78
2023-05-06T20:25:18.610Z,5.88
2023-05-06T20:27:46.378Z,10.30
2023-05-06T20:30:13.291Z,7.50
2023-05-06T20:32:40.637Z,4.10
2023-05-06T20:35:08.227Z,6.38
2023-05-06T20:37:36.224Z,6.93
2023-05-06T20:40:04.938Z,4.72
2023-05-06T20:42:31.979Z,4.72
2023-05-06T20:44:59.468Z,3.85
2023-05-06T20:47:26.784Z,5.78
2023-05-06T20:49:53.948Z,6.50
2023-05-06T20:52:21.751Z,5.40
2023-05-06T20:54:48.868Z,4.50
2023-05-06T20:57:17.710Z,6.97
2023-05-06T20:59:44.604Z,5.40
2023-05-06T21:02:11.540Z,5.38
2023-05-06T21:04:38.433Z,8.20
2023-05-06T21:07:05.697Z,10.75
2023-05-06T21:09:32.564Z,4.25
2023-05-06T21:11:59.318Z,3.58
2023-05-06T21:14:27.337Z,8.05
2023-05-06T21:16:54.086Z,6.22
2023-05-06T21:19:21.064Z,6.95
2023-05-06T21:21:48.303Z,5.95
2023-05-06T21:24:15.129Z,4.88
2023-05-06T21:26:41.891Z,7.80
2023-05-06T21:29:08.687Z,5.05
2023-05-06T21:31:35.461Z,5.60
2023-05-06T21:34:03.469Z,6.90
2023-05-06T21:36:30.174Z,5.38
2023-05-06T21:39:14.914Z,4.60
2023-05-06T21:41:41.589Z,4.10
2023-05-06T21:44:09.170Z,6.35
2023-05-06T21:46:37.723Z,5.00
2023-05-06T21:49:04.823Z,4.53
2023-05-06T21:51:32.931Z,4.65
2023-05-06T21:53:59.624Z,7.85
2023-05-06T21:56:26.571Z,5.47
2023-05-06T21:58:56.995Z,4.60
2023-05-06T22:01:29.218Z,5.35
2023-05-06T22:03:56.407Z,8.65
2023-05-06T22:06:23.359Z,4.10
2023-05-06T22:08:50.121Z,9.85
2023-05-06T22:11:17.277Z,7.05
2023-05-06T22:13:44.474Z,5.05
2023-05-06T22:16:11.277Z,4.78
2023-05-06T22:18:41.258Z,6.57
2023-05-06T22:21:08.783Z,4.07
2023-05-06T22:23:35.690Z,4.20
2023-05-06T22:26:02.681Z,4.57
2023-05-06T22:28:29.283Z,7.15
2023-05-06T22:30:56.114Z,5.18
2023-05-06T22:33:22.809Z,5.28
2023-05-06T22:35:49.662Z,3.22
2023-05-06T22:38:16.324Z,4.30
2023-05-06T22:40:42.931Z,2.20
2023-05-06T22:43:09.592Z,5.07
2023-05-06T22:45:36.632Z,5.80
2023-05-06T22:48:03.717Z,4.82
2023-05-06T22:50:30.761Z,2.28
2023-05-06T22:52:57.448Z,5.72
2023-05-06T22:55:24.125Z,3.22
2023-05-06T22:57:53.830Z,2.70
2023-05-06T23:00:20.631Z,2.85
2023-05-06T23:02:47.455Z,3.65
2023-05-06T23:05:14.475Z,3.70
2023-05-06T23:07:41.252Z,2.72
2023-05-06T23:10:08.447Z,5.13
2023-05-06T23:12:35.288Z,3.80
2023-05-06T23:15:02.347Z,3.75
2023-05-06T23:17:28.942Z,4.00
2023-05-06T23:19:55.639Z,5.63
2023-05-06T23:22:22.646Z,7.97
2023-05-06T23:24:49.891Z,5.50
2023-05-06T23:27:16.488Z,4.40
2023-05-06T23:29:43.221Z,4.40
2023-05-06T23:32:09.939Z,3.60
2023-05-06T23:34:36.684Z,3.55
2023-05-06T23:37:03.271Z,4.75
2023-05-06T23:39:29.958Z,3.90
2023-05-06T23:41:56.531Z,2.45
2023-05-06T23:44:23.426Z,3.00
2023-05-06T23:46:50.232Z,2.70
2023-05-06T23:49:16.901Z,5.28
2023-05-06T23:51:43.560Z,3.38
2023-05-06T23:54:10.377Z,4.03
2023-05-06T23:56:37.019Z,6.25
2023-05-06T23:59:04.070Z,3.08
